»·PEaware :: DAL711 KSLC-KSEA

DAL711 :: KSLC-KSEA

FLIGHT INFORMATION

Flight Status: Arrived
Operator:
Delta Air Lines
More flights by this operator :: More flights under this callsign
Pilot: Anonymous 18613 (18613)
Aircraft: BOEING 737-800
(B738)
More flights by this aircraft type
Origin: KSLC Salt Lake City Intl
United States
Destination: KSEA Seattle-Tacoma Intl
United States
More flights between these airports :: More routes between these airports
Route: CGULL1 TWF BOI J163 BKE PDT CHINS3
File this flight plan on PilotEdge
Remarks: RMK / SIMBRIEF
Altitude:
(Current/Filed)
36,000ft
Speed:
(Current/Filed)
446kts
Departed: 11-Jul-19 03:35 PM
Arrived: 11-Jul-19 05:12 PM
Distance/Time
Traveled:
596nm/1:36
Distance/Time
To Go:
Arrived

Flight Plot

Page will automatically refresh every two minutes.

Flight plan parsing failed; only flown route is shown


Map Options




Map Legend


Flown Route
Filed Route
Departure Airport
Arrival Airport
Navaid (VOR, NDB)
Fix

Horizontal Profiles

Position Reports

Time Latitude Longitude Heading Altitude Ground
Speed
11-Jul-19 14:58 40.787114 -111.987312 206 4223ft 0kts
11-Jul-19 14:59 40.787114 -111.987312 206 4223ft 0kts
11-Jul-19 15:00 40.787114 -111.987312 206 4223ft 0kts
11-Jul-19 15:01 40.787114 -111.987312 206 4223ft 0kts
11-Jul-19 15:02 40.787114 -111.987312 206 4223ft 0kts
11-Jul-19 15:03 40.787114 -111.987312 206 4223ft 0kts
11-Jul-19 15:04 40.787114 -111.987312 206 4223ft 0kts
11-Jul-19 15:05 40.787114 -111.987312 206 4223ft 0kts
11-Jul-19 15:06 40.787114 -111.987312 206 4223ft 0kts
11-Jul-19 15:07 40.787114 -111.987312 206 4223ft 0kts
11-Jul-19 15:08 40.787114 -111.987312 206 4223ft 0kts
11-Jul-19 15:09 40.787114 -111.987312 206 4223ft 0kts
11-Jul-19 15:10 40.787114 -111.987312 206 4223ft 0kts
11-Jul-19 15:11 40.787114 -111.987312 206 4223ft 0kts
11-Jul-19 15:12 40.787114 -111.987312 206 4223ft 0kts
11-Jul-19 15:13 40.787114 -111.987312 206 4223ft 0kts
11-Jul-19 15:14 40.787114 -111.987312 206 4223ft 0kts
11-Jul-19 15:15 40.787114 -111.987312 206 4223ft 0kts
11-Jul-19 15:16 40.787114 -111.987312 206 4223ft 0kts
11-Jul-19 15:17 40.787114 -111.987312 206 4223ft 0kts
11-Jul-19 15:18 40.787114 -111.987312 206 4223ft 0kts
11-Jul-19 15:19 40.787114 -111.987312 206 4223ft 0kts
11-Jul-19 15:20 40.787114 -111.987312 206 4223ft 0kts
11-Jul-19 15:21 40.787114 -111.987312 206 4223ft 0kts
11-Jul-19 15:22 40.787114 -111.987312 206 4223ft 0kts
11-Jul-19 15:23 40.787108 -111.987316 206 4223ft 0kts
11-Jul-19 15:24 40.787241 -111.987203 220 4223ft 4kts
11-Jul-19 15:25 40.787279 -111.988429 264 4223ft 0kts
11-Jul-19 15:26 40.787279 -111.988429 264 4223ft 0kts
11-Jul-19 15:27 40.787147 -111.990492 265 4223ft 10kts
11-Jul-19 15:28 40.787623 -111.993810 357 4223ft 17kts
11-Jul-19 15:29 40.793522 -111.994477 355 4223ft 23kts
11-Jul-19 15:30 40.800827 -111.995363 351 4227ft 25kts
11-Jul-19 15:31 40.807705 -111.996228 333 4223ft 17kts
11-Jul-19 15:32 40.807735 -111.997842 256 4223ft 0kts
11-Jul-19 15:33 40.807710 -111.998014 260 4223ft 5kts
11-Jul-19 15:34 40.798771 -111.998228 175 4227ft 123kts
11-Jul-19 15:35 40.747863 -111.996428 201 5568ft 207kts
11-Jul-19 15:36 40.729819 -112.059068 299 7265ft 231kts
11-Jul-19 15:37 40.770354 -112.128802 300 10197ft 236kts
11-Jul-19 15:38 40.813526 -112.193082 329 13490ft 223kts
11-Jul-19 15:39 40.874234 -112.224954 334 15988ft 243kts
11-Jul-19 15:40 40.937567 -112.270935 316 17695ft 293kts
11-Jul-19 15:41 41.007372 -112.352747 316 18973ft 369kts
11-Jul-19 15:42 41.087441 -112.442125 325 22036ft 387kts
11-Jul-19 15:43 41.174867 -112.515501 323 24695ft 401kts
11-Jul-19 15:44 41.265425 -112.606696 321 27280ft 415kts
11-Jul-19 15:45 41.346018 -112.717068 310 29601ft 427kts
11-Jul-19 15:46 41.426421 -112.836693 310 31844ft 437kts
11-Jul-19 15:47 41.505111 -112.957562 309 34527ft 428kts
11-Jul-19 15:48 41.582613 -113.076897 309 36158ft 434kts
11-Jul-19 15:49 41.661638 -113.198964 309 36150ft 433kts
11-Jul-19 15:50 41.740217 -113.320772 309 36145ft 434kts
11-Jul-19 15:51 41.818979 -113.443336 309 36145ft 434kts
11-Jul-19 15:52 41.897446 -113.565922 309 36145ft 434kts
11-Jul-19 15:53 41.976302 -113.689620 309 36147ft 434kts
11-Jul-19 15:54 42.054536 -113.812874 309 36147ft 433kts
11-Jul-19 15:55 42.133129 -113.937192 309 36146ft 434kts
11-Jul-19 15:56 42.211143 -114.060796 309 36147ft 434kts
11-Jul-19 15:57 42.289262 -114.184694 309 36152ft 434kts
11-Jul-19 15:58 42.367384 -114.309110 309 36154ft 433kts
11-Jul-19 15:59 42.445214 -114.433574 309 36154ft 433kts
11-Jul-19 16:00 42.523917 -114.557687 310 36154ft 434kts
11-Jul-19 16:01 42.603453 -114.680768 309 36156ft 434kts
11-Jul-19 16:02 42.682758 -114.804044 309 36156ft 434kts
11-Jul-19 16:03 42.762079 -114.927861 309 36155ft 434kts
11-Jul-19 16:04 42.841611 -115.052534 309 36137ft 433kts
11-Jul-19 16:05 42.920401 -115.176575 307 36061ft 432kts
11-Jul-19 16:06 42.998688 -115.300340 306 36046ft 428kts
11-Jul-19 16:07 43.076220 -115.423433 305 36046ft 426kts
11-Jul-19 16:08 43.153681 -115.546953 305 36039ft 426kts
11-Jul-19 16:09 43.232348 -115.672929 304 36046ft 426kts
11-Jul-19 16:10 43.309686 -115.797404 304 36046ft 426kts
11-Jul-19 16:11 43.386479 -115.921517 304 36047ft 426kts
11-Jul-19 16:12 43.463403 -116.046354 304 36059ft 426kts
11-Jul-19 16:13 43.540373 -116.171780 304 36062ft 426kts
11-Jul-19 16:14 43.628023 -116.284806 313 36054ft 432kts
11-Jul-19 16:15 43.718177 -116.394686 313 36045ft 432kts
11-Jul-19 16:16 43.808162 -116.505073 313 36047ft 432kts
11-Jul-19 16:17 43.897889 -116.615683 313 36051ft 432kts
11-Jul-19 16:18 43.988071 -116.727390 312 36057ft 431kts
11-Jul-19 16:19 44.078885 -116.840411 312 36051ft 431kts
11-Jul-19 16:20 44.168284 -116.952141 312 36044ft 432kts
11-Jul-19 16:21 44.258887 -117.065853 313 36044ft 431kts
11-Jul-19 16:22 44.349306 -117.179821 313 36045ft 431kts
11-Jul-19 16:23 44.438344 -117.292531 313 36079ft 431kts
11-Jul-19 16:24 44.527342 -117.405677 313 36125ft 431kts
11-Jul-19 16:25 44.616017 -117.518893 313 36125ft 431kts
11-Jul-19 16:26 44.704729 -117.632643 313 36125ft 431kts
11-Jul-19 16:27 44.793478 -117.746981 313 36130ft 431kts
11-Jul-19 16:28 44.882290 -117.861797 313 36130ft 431kts
11-Jul-19 16:29 44.971072 -117.976833 313 36130ft 430kts
11-Jul-19 16:30 45.059447 -118.091808 311 36120ft 426kts
11-Jul-19 16:31 45.146915 -118.206092 310 36105ft 423kts
11-Jul-19 16:32 45.231950 -118.317704 310 36105ft 424kts
11-Jul-19 16:34 45.319135 -118.432617 310 36097ft 424kts
11-Jul-19 16:35 45.406341 -118.548050 310 36088ft 424kts
11-Jul-19 16:36 45.490977 -118.660563 310 36090ft 424kts
11-Jul-19 16:37 45.577600 -118.776324 310 36094ft 424kts
11-Jul-19 16:38 45.663502 -118.891621 309 36093ft 424kts
11-Jul-19 16:39 45.744083 -119.013451 302 36093ft 418kts
11-Jul-19 16:40 45.817178 -119.137563 302 36078ft 418kts
11-Jul-19 16:41 45.892774 -119.266189 302 36065ft 418kts
11-Jul-19 16:42 45.967796 -119.394279 302 36059ft 418kts
11-Jul-19 16:43 46.042762 -119.522748 302 34589ft 416kts
11-Jul-19 16:44 46.118172 -119.652635 302 32972ft 424kts
11-Jul-19 16:45 46.194554 -119.784915 302 31361ft 429kts
11-Jul-19 16:46 46.271672 -119.919061 303 29690ft 435kts
11-Jul-19 16:47 46.349395 -120.054864 303 27878ft 440kts
11-Jul-19 16:48 46.428940 -120.194514 303 26040ft 446kts
11-Jul-19 16:49 46.509685 -120.336967 304 24193ft 452kts
11-Jul-19 16:50 46.588735 -120.479958 300 22969ft 445kts
11-Jul-19 16:51 46.659112 -120.628177 300 21838ft 439kts
11-Jul-19 16:52 46.728751 -120.775364 299 20735ft 433kts
11-Jul-19 16:52 46.785685 -120.896041 299 19822ft 427kts
11-Jul-19 16:54 46.863497 -121.061574 299 18535ft 405kts
11-Jul-19 16:54 46.913513 -121.168181 299 17605ft 359kts
11-Jul-19 16:55 46.968100 -121.285331 299 16507ft 344kts
11-Jul-19 16:57 47.031070 -121.421239 300 15997ft 345kts
11-Jul-19 16:57 47.077241 -121.517936 309 15957ft 350kts
11-Jul-19 16:58 47.146761 -121.607682 316 14604ft 332kts
11-Jul-19 16:59 47.211001 -121.706402 295 13128ft 308kts
11-Jul-19 17:00 47.252218 -121.821066 295 11667ft 299kts
11-Jul-19 17:01 47.291719 -121.933757 295 10080ft 294kts
11-Jul-19 17:02 47.336889 -122.036515 325 9797ft 296kts
11-Jul-19 17:03 47.416576 -122.055391 355 8176ft 284kts
11-Jul-19 17:04 47.494324 -122.062047 355 6565ft 275kts
11-Jul-19 17:05 47.569874 -122.069365 355 5273ft 268kts
11-Jul-19 17:06 47.622239 -122.130255 280 3988ft 248kts
11-Jul-19 17:07 47.627283 -122.226632 264 3967ft 241kts
11-Jul-19 17:08 47.586473 -122.296946 215 3177ft 243kts
11-Jul-19 17:09 47.519828 -122.306321 182 1648ft 234kts
11-Jul-19 17:10 47.458485 -122.307746 182 441ft 197kts
11-Jul-19 17:11 47.423926 -122.308336 177 259ft 0kts

Navigation Log

Ident Type
Flight plan parsing failed, navigation log unavailable